sensor_id;sensor_type;location;lat;lon;timestamp;P1;durP1;ratioP1;P2;durP2;ratioP2
55078;SDS011;55187;49.496;6.010;2022-08-03T00:02:15;3.33;;;2.10;;
55078;SDS011;55187;49.496;6.010;2022-08-03T00:04:41;4.90;;;3.03;;
55078;SDS011;55187;49.496;6.010;2022-08-03T00:07:08;4.60;;;2.10;;
55078;SDS011;55187;49.496;6.010;2022-08-03T00:09:34;4.53;;;2.15;;
55078;SDS011;55187;49.496;6.010;2022-08-03T00:12:00;2.78;;;1.92;;
55078;SDS011;55187;49.496;6.010;2022-08-03T00:14:26;6.53;;;2.35;;
55078;SDS011;55187;49.496;6.010;2022-08-03T00:16:53;6.88;;;2.50;;
55078;SDS011;55187;49.496;6.010;2022-08-03T00:19:19;3.90;;;2.50;;
55078;SDS011;55187;49.496;6.010;2022-08-03T00:21:45;4.18;;;2.30;;
55078;SDS011;55187;49.496;6.010;2022-08-03T00:24:12;2.65;;;2.03;;
55078;SDS011;55187;49.496;6.010;2022-08-03T00:26:38;4.10;;;2.38;;
55078;SDS011;55187;49.496;6.010;2022-08-03T00:29:04;7.00;;;2.75;;
55078;SDS011;55187;49.496;6.010;2022-08-03T00:31:31;2.35;;;1.98;;
55078;SDS011;55187;49.496;6.010;2022-08-03T00:33:57;2.88;;;2.08;;
55078;SDS011;55187;49.496;6.010;2022-08-03T00:36:23;2.63;;;2.10;;
55078;SDS011;55187;49.496;6.010;2022-08-03T00:38:50;7.15;;;2.38;;
55078;SDS011;55187;49.496;6.010;2022-08-03T00:41:16;3.08;;;1.90;;
55078;SDS011;55187;49.496;6.010;2022-08-03T00:43:42;2.30;;;1.65;;
55078;SDS011;55187;49.496;6.010;2022-08-03T00:46:09;4.30;;;1.98;;
55078;SDS011;55187;49.496;6.010;2022-08-03T00:48:36;2.75;;;1.58;;
55078;SDS011;55187;49.496;6.010;2022-08-03T00:51:02;3.67;;;2.60;;
55078;SDS011;55187;49.496;6.010;2022-08-03T00:53:29;5.88;;;2.28;;
55078;SDS011;55187;49.496;6.010;2022-08-03T00:55:56;3.30;;;2.38;;
55078;SDS011;55187;49.496;6.010;2022-08-03T00:58:23;4.22;;;1.85;;
55078;SDS011;55187;49.496;6.010;2022-08-03T01:00:49;3.42;;;2.38;;
55078;SDS011;55187;49.496;6.010;2022-08-03T01:03:16;3.08;;;2.28;;
55078;SDS011;55187;49.496;6.010;2022-08-03T01:14:10;3.40;;;2.08;;
55078;SDS011;55187;49.496;6.010;2022-08-03T01:16:43;2.85;;;2.03;;
55078;SDS011;55187;49.496;6.010;2022-08-03T01:22:17;4.25;;;2.20;;
55078;SDS011;55187;49.496;6.010;2022-08-03T01:25:13;2.17;;;1.60;;
55078;SDS011;55187;49.496;6.010;2022-08-03T01:28:19;2.38;;;1.83;;
55078;SDS011;55187;49.496;6.010;2022-08-03T01:30:50;5.97;;;1.98;;
55078;SDS011;55187;49.496;6.010;2022-08-03T01:33:30;3.75;;;2.05;;
55078;SDS011;55187;49.496;6.010;2022-08-03T01:36:03;3.25;;;2.15;;
55078;SDS011;55187;49.496;6.010;2022-08-03T01:38:35;3.45;;;2.00;;
55078;SDS011;55187;49.496;6.010;2022-08-03T01:41:10;2.22;;;1.45;;
55078;SDS011;55187;49.496;6.010;2022-08-03T01:43:39;3.72;;;1.92;;
55078;SDS011;55187;49.496;6.010;2022-08-03T01:46:10;3.30;;;2.25;;
55078;SDS011;55187;49.496;6.010;2022-08-03T01:48:36;3.20;;;2.30;;
55078;SDS011;55187;49.496;6.010;2022-08-03T01:51:05;3.15;;;2.03;;
55078;SDS011;55187;49.496;6.010;2022-08-03T01:53:33;3.72;;;2.42;;
55078;SDS011;55187;49.496;6.010;2022-08-03T01:56:03;3.88;;;1.88;;
55078;SDS011;55187;49.496;6.010;2022-08-03T01:58:32;4.32;;;2.28;;
55078;SDS011;55187;49.496;6.010;2022-08-03T02:01:01;3.53;;;2.10;;
55078;SDS011;55187;49.496;6.010;2022-08-03T02:03:31;3.22;;;2.35;;
55078;SDS011;55187;49.496;6.010;2022-08-03T02:06:00;3.28;;;1.98;;
55078;SDS011;55187;49.496;6.010;2022-08-03T02:08:27;3.33;;;2.28;;
55078;SDS011;55187;49.496;6.010;2022-08-03T02:10:56;4.45;;;2.10;;
55078;SDS011;55187;49.496;6.010;2022-08-03T02:13:24;3.28;;;1.98;;
55078;SDS011;55187;49.496;6.010;2022-08-03T02:15:52;5.88;;;2.00;;
55078;SDS011;55187;49.496;6.010;2022-08-03T02:18:20;3.17;;;1.95;;
55078;SDS011;55187;49.496;6.010;2022-08-03T02:20:49;3.13;;;2.00;;
55078;SDS011;55187;49.496;6.010;2022-08-03T02:23:16;3.97;;;2.42;;
55078;SDS011;55187;49.496;6.010;2022-08-03T02:25:44;3.05;;;2.20;;
55078;SDS011;55187;49.496;6.010;2022-08-03T02:28:16;3.95;;;2.30;;
55078;SDS011;55187;49.496;6.010;2022-08-03T02:30:46;3.00;;;2.28;;
55078;SDS011;55187;49.496;6.010;2022-08-03T02:33:20;3.92;;;1.95;;
55078;SDS011;55187;49.496;6.010;2022-08-03T02:35:53;3.40;;;2.28;;
55078;SDS011;55187;49.496;6.010;2022-08-03T02:38:22;3.65;;;2.40;;
55078;SDS011;55187;49.496;6.010;2022-08-03T02:40:54;6.15;;;2.05;;
55078;SDS011;55187;49.496;6.010;2022-08-03T02:43:23;3.55;;;2.10;;
55078;SDS011;55187;49.496;6.010;2022-08-03T02:45:51;8.23;;;2.17;;
55078;SDS011;55187;49.496;6.010;2022-08-03T02:48:22;4.90;;;2.15;;
55078;SDS011;55187;49.496;6.010;2022-08-03T02:53:20;3.22;;;1.40;;
55078;SDS011;55187;49.496;6.010;2022-08-03T02:55:47;3.47;;;2.13;;
55078;SDS011;55187;49.496;6.010;2022-08-03T02:58:16;5.72;;;2.20;;
55078;SDS011;55187;49.496;6.010;2022-08-03T03:00:46;2.60;;;2.00;;
55078;SDS011;55187;49.496;6.010;2022-08-03T03:03:13;4.00;;;2.45;;
55078;SDS011;55187;49.496;6.010;2022-08-03T03:05:40;4.72;;;2.15;;
55078;SDS011;55187;49.496;6.010;2022-08-03T03:08:07;5.60;;;2.08;;
55078;SDS011;55187;49.496;6.010;2022-08-03T03:10:36;5.22;;;1.98;;
55078;SDS011;55187;49.496;6.010;2022-08-03T03:13:03;6.53;;;2.55;;
55078;SDS011;55187;49.496;6.010;2022-08-03T03:15:30;4.50;;;2.28;;
55078;SDS011;55187;49.496;6.010;2022-08-03T03:18:00;3.90;;;2.58;;
55078;SDS011;55187;49.496;6.010;2022-08-03T03:20:28;4.07;;;2.65;;
55078;SDS011;55187;49.496;6.010;2022-08-03T03:22:54;3.00;;;2.10;;
55078;SDS011;55187;49.496;6.010;2022-08-03T03:25:23;4.00;;;2.65;;
55078;SDS011;55187;49.496;6.010;2022-08-03T03:27:49;7.63;;;3.15;;
55078;SDS011;55187;49.496;6.010;2022-08-03T03:30:16;2.78;;;2.20;;
55078;SDS011;55187;49.496;6.010;2022-08-03T03:32:42;9.02;;;3.10;;
55078;SDS011;55187;49.496;6.010;2022-08-03T03:35:09;2.75;;;2.17;;
55078;SDS011;55187;49.496;6.010;2022-08-03T03:37:36;7.22;;;2.38;;
55078;SDS011;55187;49.496;6.010;2022-08-03T03:40:03;4.40;;;2.20;;
55078;SDS011;55187;49.496;6.010;2022-08-03T03:42:30;3.28;;;2.10;;
55078;SDS011;55187;49.496;6.010;2022-08-03T03:44:57;7.15;;;2.15;;
55078;SDS011;55187;49.496;6.010;2022-08-03T03:47:24;3.53;;;2.40;;
55078;SDS011;55187;49.496;6.010;2022-08-03T03:49:50;4.60;;;2.85;;
55078;SDS011;55187;49.496;6.010;2022-08-03T03:52:17;4.55;;;2.67;;
55078;SDS011;55187;49.496;6.010;2022-08-03T03:54:43;6.57;;;2.72;;
55078;SDS011;55187;49.496;6.010;2022-08-03T03:57:10;3.97;;;2.80;;
55078;SDS011;55187;49.496;6.010;2022-08-03T03:59:38;3.75;;;2.55;;
55078;SDS011;55187;49.496;6.010;2022-08-03T04:02:08;4.90;;;2.67;;
55078;SDS011;55187;49.496;6.010;2022-08-03T04:04:36;4.65;;;2.42;;
55078;SDS011;55187;49.496;6.010;2022-08-03T04:07:24;7.28;;;2.72;;
55078;SDS011;55187;49.496;6.010;2022-08-03T04:10:04;3.85;;;2.35;;
55078;SDS011;55187;49.496;6.010;2022-08-03T04:12:49;4.72;;;2.55;;
55078;SDS011;55187;49.496;6.010;2022-08-03T04:15:18;6.05;;;2.58;;
55078;SDS011;55187;49.496;6.010;2022-08-03T04:17:47;3.25;;;2.33;;
55078;SDS011;55187;49.496;6.010;2022-08-03T04:20:17;4.80;;;2.47;;
55078;SDS011;55187;49.496;6.010;2022-08-03T04:22:47;3.42;;;2.28;;
55078;SDS011;55187;49.496;6.010;2022-08-03T04:25:16;3.88;;;2.25;;
55078;SDS011;55187;49.496;6.010;2022-08-03T04:27:46;9.02;;;2.50;;
55078;SDS011;55187;49.496;6.010;2022-08-03T04:30:14;3.60;;;2.30;;
55078;SDS011;55187;49.496;6.010;2022-08-03T04:32:41;3.67;;;2.33;;
55078;SDS011;55187;49.496;6.010;2022-08-03T04:35:10;6.18;;;2.47;;
55078;SDS011;55187;49.496;6.010;2022-08-03T04:37:37;4.57;;;2.53;;
55078;SDS011;55187;49.496;6.010;2022-08-03T04:40:08;2.80;;;2.13;;
55078;SDS011;55187;49.496;6.010;2022-08-03T04:42:40;3.50;;;2.58;;
55078;SDS011;55187;49.496;6.010;2022-08-03T04:45:10;4.95;;;2.20;;
55078;SDS011;55187;49.496;6.010;2022-08-03T04:47:38;2.83;;;2.28;;
55078;SDS011;55187;49.496;6.010;2022-08-03T04:50:05;4.10;;;2.58;;
55078;SDS011;55187;49.496;6.010;2022-08-03T04:52:32;3.63;;;2.33;;
55078;SDS011;55187;49.496;6.010;2022-08-03T04:54:59;3.67;;;1.98;;
55078;SDS011;55187;49.496;6.010;2022-08-03T04:57:27;3.25;;;2.17;;
55078;SDS011;55187;49.496;6.010;2022-08-03T04:59:54;6.80;;;3.17;;
55078;SDS011;55187;49.496;6.010;2022-08-03T05:02:21;4.47;;;2.65;;
55078;SDS011;55187;49.496;6.010;2022-08-03T05:04:48;4.10;;;2.60;;
55078;SDS011;55187;49.496;6.010;2022-08-03T05:07:16;3.78;;;2.63;;
55078;SDS011;55187;49.496;6.010;2022-08-03T05:09:43;5.05;;;2.53;;
55078;SDS011;55187;49.496;6.010;2022-08-03T05:12:10;5.10;;;3.00;;
55078;SDS011;55187;49.496;6.010;2022-08-03T05:14:37;6.00;;;3.17;;
55078;SDS011;55187;49.496;6.010;2022-08-03T05:17:07;9.00;;;3.45;;
55078;SDS011;55187;49.496;6.010;2022-08-03T05:19:34;6.13;;;3.20;;
55078;SDS011;55187;49.496;6.010;2022-08-03T05:22:00;4.55;;;2.70;;
55078;SDS011;55187;49.496;6.010;2022-08-03T05:24:26;4.80;;;3.08;;
55078;SDS011;55187;49.496;6.010;2022-08-03T05:26:53;5.45;;;3.22;;
55078;SDS011;55187;49.496;6.010;2022-08-03T05:29:19;4.68;;;2.67;;
55078;SDS011;55187;49.496;6.010;2022-08-03T05:31:45;10.48;;;3.38;;
55078;SDS011;55187;49.496;6.010;2022-08-03T05:34:12;4.10;;;2.92;;
55078;SDS011;55187;49.496;6.010;2022-08-03T05:36:38;5.32;;;2.80;;
55078;SDS011;55187;49.496;6.010;2022-08-03T05:39:04;5.97;;;2.80;;
55078;SDS011;55187;49.496;6.010;2022-08-03T05:41:31;3.97;;;3.00;;
55078;SDS011;55187;49.496;6.010;2022-08-03T05:43:57;4.80;;;2.60;;
55078;SDS011;55187;49.496;6.010;2022-08-03T05:46:23;4.35;;;2.45;;
55078;SDS011;55187;49.496;6.010;2022-08-03T05:48:50;3.30;;;2.60;;
55078;SDS011;55187;49.496;6.010;2022-08-03T05:51:16;6.57;;;2.70;;
55078;SDS011;55187;49.496;6.010;2022-08-03T05:53:42;4.32;;;2.70;;
55078;SDS011;55187;49.496;6.010;2022-08-03T05:56:10;4.05;;;2.60;;
55078;SDS011;55187;49.496;6.010;2022-08-03T05:58:37;3.90;;;2.60;;
55078;SDS011;55187;49.496;6.010;2022-08-03T06:01:03;4.10;;;2.47;;
55078;SDS011;55187;49.496;6.010;2022-08-03T06:03:30;6.65;;;2.55;;
55078;SDS011;55187;49.496;6.010;2022-08-03T06:05:56;3.47;;;2.53;;
55078;SDS011;55187;49.496;6.010;2022-08-03T06:08:23;16.10;;;3.08;;
55078;SDS011;55187;49.496;6.010;2022-08-03T06:10:49;2.78;;;2.33;;
55078;SDS011;55187;49.496;6.010;2022-08-03T06:13:15;5.70;;;2.38;;
55078;SDS011;55187;49.496;6.010;2022-08-03T06:15:42;4.05;;;2.55;;
55078;SDS011;55187;49.496;6.010;2022-08-03T06:18:08;5.05;;;2.33;;
55078;SDS011;55187;49.496;6.010;2022-08-03T06:20:34;4.40;;;2.28;;
55078;SDS011;55187;49.496;6.010;2022-08-03T06:23:01;6.18;;;2.63;;
55078;SDS011;55187;49.496;6.010;2022-08-03T06:25:27;3.55;;;1.95;;
55078;SDS011;55187;49.496;6.010;2022-08-03T06:27:53;3.03;;;2.38;;
55078;SDS011;55187;49.496;6.010;2022-08-03T06:30:20;4.63;;;1.80;;
55078;SDS011;55187;49.496;6.010;2022-08-03T06:32:46;2.60;;;1.83;;
55078;SDS011;55187;49.496;6.010;2022-08-03T06:35:13;6.38;;;2.17;;
55078;SDS011;55187;49.496;6.010;2022-08-03T06:40:11;3.95;;;1.92;;
55078;SDS011;55187;49.496;6.010;2022-08-03T06:42:39;5.10;;;2.10;;
55078;SDS011;55187;49.496;6.010;2022-08-03T06:45:06;2.92;;;1.92;;
55078;SDS011;55187;49.496;6.010;2022-08-03T06:47:34;3.65;;;2.28;;
55078;SDS011;55187;49.496;6.010;2022-08-03T06:50:02;4.65;;;2.30;;
55078;SDS011;55187;49.496;6.010;2022-08-03T06:52:30;3.25;;;2.50;;
55078;SDS011;55187;49.496;6.010;2022-08-03T06:54:56;4.90;;;2.13;;
55078;SDS011;55187;49.496;6.010;2022-08-03T06:57:23;4.78;;;2.10;;
55078;SDS011;55187;49.496;6.010;2022-08-03T06:59:49;3.25;;;2.10;;
55078;SDS011;55187;49.496;6.010;2022-08-03T07:02:16;3.97;;;2.17;;
55078;SDS011;55187;49.496;6.010;2022-08-03T07:04:44;6.68;;;2.55;;
55078;SDS011;55187;49.496;6.010;2022-08-03T07:07:14;6.22;;;2.15;;
55078;SDS011;55187;49.496;6.010;2022-08-03T07:09:42;4.50;;;2.08;;
55078;SDS011;55187;49.496;6.010;2022-08-03T07:12:08;5.90;;;2.28;;
55078;SDS011;55187;49.496;6.010;2022-08-03T07:14:34;2.95;;;1.73;;
55078;SDS011;55187;49.496;6.010;2022-08-03T07:17:01;4.60;;;2.33;;
55078;SDS011;55187;49.496;6.010;2022-08-03T07:19:27;4.07;;;1.77;;
55078;SDS011;55187;49.496;6.010;2022-08-03T07:21:53;7.30;;;2.08;;
55078;SDS011;55187;49.496;6.010;2022-08-03T07:24:20;6.53;;;2.45;;
55078;SDS011;55187;49.496;6.010;2022-08-03T07:26:46;5.22;;;2.70;;
55078;SDS011;55187;49.496;6.010;2022-08-03T07:29:13;7.43;;;2.50;;
55078;SDS011;55187;49.496;6.010;2022-08-03T07:31:39;6.30;;;2.70;;
55078;SDS011;55187;49.496;6.010;2022-08-03T07:34:05;5.93;;;2.90;;
55078;SDS011;55187;49.496;6.010;2022-08-03T07:36:32;6.28;;;2.83;;
55078;SDS011;55187;49.496;6.010;2022-08-03T07:38:58;10.90;;;2.75;;
55078;SDS011;55187;49.496;6.010;2022-08-03T07:41:24;10.00;;;2.35;;
55078;SDS011;55187;49.496;6.010;2022-08-03T07:43:51;10.65;;;4.15;;
55078;SDS011;55187;49.496;6.010;2022-08-03T07:46:17;6.63;;;2.53;;
55078;SDS011;55187;49.496;6.010;2022-08-03T07:48:44;7.00;;;2.90;;
55078;SDS011;55187;49.496;6.010;2022-08-03T07:51:10;4.68;;;2.45;;
55078;SDS011;55187;49.496;6.010;2022-08-03T07:53:36;9.90;;;2.58;;
55078;SDS011;55187;49.496;6.010;2022-08-03T07:56:03;6.75;;;2.30;;
55078;SDS011;55187;49.496;6.010;2022-08-03T07:58:29;5.60;;;2.30;;
55078;SDS011;55187;49.496;6.010;2022-08-03T08:00:56;4.03;;;1.75;;
55078;SDS011;55187;49.496;6.010;2022-08-03T08:03:22;5.20;;;2.28;;
55078;SDS011;55187;49.496;6.010;2022-08-03T08:05:49;3.40;;;2.35;;
55078;SDS011;55187;49.496;6.010;2022-08-03T08:08:15;5.63;;;2.25;;
55078;SDS011;55187;49.496;6.010;2022-08-03T08:10:41;3.42;;;1.73;;
55078;SDS011;55187;49.496;6.010;2022-08-03T08:13:08;8.50;;;2.20;;
55078;SDS011;55187;49.496;6.010;2022-08-03T08:15:34;5.25;;;1.65;;
55078;SDS011;55187;49.496;6.010;2022-08-03T08:18:01;6.60;;;1.90;;
55078;SDS011;55187;49.496;6.010;2022-08-03T08:20:29;4.90;;;2.08;;
55078;SDS011;55187;49.496;6.010;2022-08-03T08:22:59;7.20;;;1.95;;
55078;SDS011;55187;49.496;6.010;2022-08-03T08:25:27;2.72;;;1.40;;
55078;SDS011;55187;49.496;6.010;2022-08-03T08:27:55;6.65;;;1.80;;
55078;SDS011;55187;49.496;6.010;2022-08-03T08:30:22;3.90;;;1.90;;
55078;SDS011;55187;49.496;6.010;2022-08-03T08:32:49;3.50;;;1.95;;
55078;SDS011;55187;49.496;6.010;2022-08-03T08:35:16;2.90;;;1.58;;
55078;SDS011;55187;49.496;6.010;2022-08-03T08:37:44;4.20;;;1.70;;
55078;SDS011;55187;49.496;6.010;2022-08-03T08:40:11;2.42;;;1.50;;
55078;SDS011;55187;49.496;6.010;2022-08-03T08:42:39;2.70;;;1.50;;
55078;SDS011;55187;49.496;6.010;2022-08-03T08:45:07;3.25;;;1.50;;
55078;SDS011;55187;49.496;6.010;2022-08-03T08:47:38;3.47;;;1.30;;
55078;SDS011;55187;49.496;6.010;2022-08-03T08:50:08;7.05;;;2.20;;
55078;SDS011;55187;49.496;6.010;2022-08-03T08:52:36;5.13;;;1.33;;
55078;SDS011;55187;49.496;6.010;2022-08-03T08:55:06;4.20;;;1.20;;
55078;SDS011;55187;49.496;6.010;2022-08-03T08:57:37;2.40;;;1.23;;
55078;SDS011;55187;49.496;6.010;2022-08-03T09:00:08;2.25;;;1.30;;
55078;SDS011;55187;49.496;6.010;2022-08-03T09:02:40;1.95;;;1.27;;
55078;SDS011;55187;49.496;6.010;2022-08-03T09:05:11;3.90;;;1.67;;
55078;SDS011;55187;49.496;6.010;2022-08-03T09:07:39;3.40;;;1.13;;
55078;SDS011;55187;49.496;6.010;2022-08-03T09:10:06;2.88;;;1.30;;
55078;SDS011;55187;49.496;6.010;2022-08-03T09:12:42;2.90;;;1.25;;
55078;SDS011;55187;49.496;6.010;2022-08-03T09:17:58;3.55;;;1.30;;
55078;SDS011;55187;49.496;6.010;2022-08-03T09:20:27;3.53;;;1.30;;
55078;SDS011;55187;49.496;6.010;2022-08-03T09:23:00;3.58;;;1.13;;
55078;SDS011;55187;49.496;6.010;2022-08-03T09:25:31;2.38;;;1.40;;
55078;SDS011;55187;49.496;6.010;2022-08-03T09:28:08;2.47;;;1.25;;
55078;SDS011;55187;49.496;6.010;2022-08-03T09:30:42;2.60;;;1.40;;
55078;SDS011;55187;49.496;6.010;2022-08-03T09:33:11;1.90;;;1.17;;
55078;SDS011;55187;49.496;6.010;2022-08-03T09:35:41;3.38;;;1.10;;
55078;SDS011;55187;49.496;6.010;2022-08-03T09:40:37;1.70;;;1.13;;
55078;SDS011;55187;49.496;6.010;2022-08-03T09:43:05;2.67;;;1.10;;
55078;SDS011;55187;49.496;6.010;2022-08-03T09:45:34;1.63;;;1.13;;
55078;SDS011;55187;49.496;6.010;2022-08-03T09:50:47;3.65;;;1.05;;
55078;SDS011;55187;49.496;6.010;2022-08-03T09:53:16;3.10;;;1.50;;
55078;SDS011;55187;49.496;6.010;2022-08-03T09:58:26;2.75;;;1.52;;
55078;SDS011;55187;49.496;6.010;2022-08-03T10:00:56;2.72;;;1.30;;
55078;SDS011;55187;49.496;6.010;2022-08-03T10:03:30;5.10;;;1.48;;
55078;SDS011;55187;49.496;6.010;2022-08-03T10:05:58;2.90;;;1.40;;
55078;SDS011;55187;49.496;6.010;2022-08-03T10:08:39;2.30;;;1.27;;
55078;SDS011;55187;49.496;6.010;2022-08-03T10:11:05;4.55;;;2.10;;
55078;SDS011;55187;49.496;6.010;2022-08-03T10:13:31;5.47;;;1.20;;
55078;SDS011;55187;49.496;6.010;2022-08-03T10:15:58;3.60;;;1.52;;
55078;SDS011;55187;49.496;6.010;2022-08-03T10:18:25;2.10;;;1.30;;
55078;SDS011;55187;49.496;6.010;2022-08-03T10:20:51;2.20;;;1.50;;
55078;SDS011;55187;49.496;6.010;2022-08-03T10:23:20;4.18;;;1.70;;
55078;SDS011;55187;49.496;6.010;2022-08-03T10:25:48;5.93;;;1.45;;
55078;SDS011;55187;49.496;6.010;2022-08-03T10:28:19;3.65;;;1.63;;
55078;SDS011;55187;49.496;6.010;2022-08-03T10:30:47;3.75;;;1.65;;
55078;SDS011;55187;49.496;6.010;2022-08-03T10:33:20;2.42;;;1.90;;
55078;SDS011;55187;49.496;6.010;2022-08-03T10:35:50;4.25;;;1.77;;
55078;SDS011;55187;49.496;6.010;2022-08-03T10:38:21;2.10;;;1.40;;
55078;SDS011;55187;49.496;6.010;2022-08-03T10:40:55;7.15;;;1.80;;
55078;SDS011;55187;49.496;6.010;2022-08-03T10:43:32;2.25;;;1.67;;
55078;SDS011;55187;49.496;6.010;2022-08-03T10:46:07;1.83;;;1.42;;
55078;SDS011;55187;49.496;6.010;2022-08-03T10:48:34;2.05;;;1.58;;
55078;SDS011;55187;49.496;6.010;2022-08-03T10:51:01;2.72;;;1.50;;
55078;SDS011;55187;49.496;6.010;2022-08-03T10:53:32;2.55;;;1.52;;
55078;SDS011;55187;49.496;6.010;2022-08-03T10:56:01;1.48;;;1.30;;
55078;SDS011;55187;49.496;6.010;2022-08-03T11:04:19;2.13;;;1.30;;
55078;SDS011;55187;49.496;6.010;2022-08-03T11:06:46;3.83;;;1.25;;
55078;SDS011;55187;49.496;6.010;2022-08-03T11:09:14;2.22;;;1.38;;
55078;SDS011;55187;49.496;6.010;2022-08-03T11:11:43;3.65;;;1.50;;
55078;SDS011;55187;49.496;6.010;2022-08-03T11:14:12;4.45;;;1.30;;
55078;SDS011;55187;49.496;6.010;2022-08-03T11:16:43;2.53;;;1.67;;
55078;SDS011;55187;49.496;6.010;2022-08-03T11:19:13;3.80;;;1.48;;
55078;SDS011;55187;49.496;6.010;2022-08-03T11:21:53;3.15;;;1.10;;
55078;SDS011;55187;49.496;6.010;2022-08-03T11:27:22;4.15;;;1.20;;
55078;SDS011;55187;49.496;6.010;2022-08-03T11:29:54;5.22;;;1.45;;
55078;SDS011;55187;49.496;6.010;2022-08-03T11:35:25;3.28;;;1.60;;
55078;SDS011;55187;49.496;6.010;2022-08-03T11:40:34;4.18;;;2.00;;
55078;SDS011;55187;49.496;6.010;2022-08-03T11:46:07;5.93;;;1.80;;
55078;SDS011;55187;49.496;6.010;2022-08-03T11:48:43;2.10;;;1.30;;
55078;SDS011;55187;49.496;6.010;2022-08-03T11:53:45;5.03;;;1.58;;
55078;SDS011;55187;49.496;6.010;2022-08-03T11:56:14;6.70;;;1.50;;
55078;SDS011;55187;49.496;6.010;2022-08-03T11:58:46;4.32;;;1.40;;
55078;SDS011;55187;49.496;6.010;2022-08-03T12:01:14;3.75;;;1.30;;
55078;SDS011;55187;49.496;6.010;2022-08-03T12:03:44;5.93;;;1.65;;
55078;SDS011;55187;49.496;6.010;2022-08-03T12:06:12;3.47;;;1.27;;
55078;SDS011;55187;49.496;6.010;2022-08-03T12:08:41;1.95;;;1.30;;
55078;SDS011;55187;49.496;6.010;2022-08-03T12:11:10;2.58;;;1.40;;
55078;SDS011;55187;49.496;6.010;2022-08-03T12:13:40;4.15;;;2.28;;
55078;SDS011;55187;49.496;6.010;2022-08-03T12:16:08;2.05;;;1.17;;
55078;SDS011;55187;49.496;6.010;2022-08-03T12:18:34;2.50;;;1.50;;
55078;SDS011;55187;49.496;6.010;2022-08-03T12:21:05;1.58;;;1.30;;
55078;SDS011;55187;49.496;6.010;2022-08-03T12:23:34;2.17;;;1.40;;
55078;SDS011;55187;49.496;6.010;2022-08-03T12:26:03;1.83;;;1.40;;
55078;SDS011;55187;49.496;6.010;2022-08-03T12:28:31;3.95;;;1.17;;
55078;SDS011;55187;49.496;6.010;2022-08-03T12:31:03;2.38;;;1.40;;
55078;SDS011;55187;49.496;6.010;2022-08-03T12:33:31;2.00;;;1.40;;
55078;SDS011;55187;49.496;6.010;2022-08-03T12:36:18;3.35;;;1.30;;
55078;SDS011;55187;49.496;6.010;2022-08-03T12:38:52;2.40;;;1.20;;
55078;SDS011;55187;49.496;6.010;2022-08-03T12:41:26;2.80;;;1.23;;
55078;SDS011;55187;49.496;6.010;2022-08-03T12:43:58;7.38;;;1.30;;
55078;SDS011;55187;49.496;6.010;2022-08-03T12:46:28;4.43;;;1.02;;
55078;SDS011;55187;49.496;6.010;2022-08-03T12:49:03;1.45;;;0.95;;
55078;SDS011;55187;49.496;6.010;2022-08-03T12:51:33;3.67;;;1.45;;
55078;SDS011;55187;49.496;6.010;2022-08-03T12:54:01;3.53;;;1.27;;
55078;SDS011;55187;49.496;6.010;2022-08-03T12:56:29;4.85;;;1.25;;
55078;SDS011;55187;49.496;6.010;2022-08-03T12:58:56;2.90;;;1.67;;
55078;SDS011;55187;49.496;6.010;2022-08-03T13:01:22;1.70;;;1.15;;
55078;SDS011;55187;49.496;6.010;2022-08-03T13:03:50;1.25;;;0.90;;
55078;SDS011;55187;49.496;6.010;2022-08-03T13:06:22;1.85;;;1.10;;
55078;SDS011;55187;49.496;6.010;2022-08-03T13:11:31;1.63;;;1.00;;
55078;SDS011;55187;49.496;6.010;2022-08-03T13:13:59;1.10;;;1.00;;
55078;SDS011;55187;49.496;6.010;2022-08-03T13:16:28;1.70;;;0.80;;
55078;SDS011;55187;49.496;6.010;2022-08-03T13:18:54;1.98;;;0.98;;
55078;SDS011;55187;49.496;6.010;2022-08-03T13:21:21;3.20;;;1.10;;
55078;SDS011;55187;49.496;6.010;2022-08-03T13:23:47;2.90;;;1.10;;
55078;SDS011;55187;49.496;6.010;2022-08-03T13:26:14;1.75;;;0.90;;
55078;SDS011;55187;49.496;6.010;2022-08-03T13:28:41;3.47;;;0.95;;
55078;SDS011;55187;49.496;6.010;2022-08-03T13:31:07;2.72;;;1.00;;
55078;SDS011;55187;49.496;6.010;2022-08-03T13:33:34;1.75;;;1.00;;
55078;SDS011;55187;49.496;6.010;2022-08-03T13:36:00;2.47;;;1.00;;
55078;SDS011;55187;49.496;6.010;2022-08-03T13:38:27;4.35;;;0.80;;
55078;SDS011;55187;49.496;6.010;2022-08-03T13:40:53;1.70;;;0.98;;
55078;SDS011;55187;49.496;6.010;2022-08-03T13:43:20;2.40;;;1.40;;
55078;SDS011;55187;49.496;6.010;2022-08-03T13:45:47;1.48;;;0.90;;
55078;SDS011;55187;49.496;6.010;2022-08-03T13:48:13;2.28;;;1.30;;
55078;SDS011;55187;49.496;6.010;2022-08-03T13:50:40;1.52;;;1.00;;
55078;SDS011;55187;49.496;6.010;2022-08-03T13:53:06;3.50;;;1.10;;
55078;SDS011;55187;49.496;6.010;2022-08-03T13:55:33;1.65;;;0.70;;
55078;SDS011;55187;49.496;6.010;2022-08-03T13:57:59;1.38;;;0.95;;
55078;SDS011;55187;49.496;6.010;2022-08-03T14:00:25;2.25;;;0.70;;
55078;SDS011;55187;49.496;6.010;2022-08-03T14:02:52;2.78;;;1.00;;
55078;SDS011;55187;49.496;6.010;2022-08-03T14:05:18;3.45;;;0.93;;
55078;SDS011;55187;49.496;6.010;2022-08-03T14:07:45;1.58;;;0.80;;
55078;SDS011;55187;49.496;6.010;2022-08-03T14:10:13;3.90;;;0.75;;
55078;SDS011;55187;49.496;6.010;2022-08-03T14:12:39;0.65;;;0.60;;
55078;SDS011;55187;49.496;6.010;2022-08-03T14:15:06;2.05;;;1.00;;
55078;SDS011;55187;49.496;6.010;2022-08-03T14:17:35;4.90;;;0.90;;
55078;SDS011;55187;49.496;6.010;2022-08-03T14:20:01;1.10;;;0.80;;
55078;SDS011;55187;49.496;6.010;2022-08-03T14:22:30;2.90;;;1.17;;
55078;SDS011;55187;49.496;6.010;2022-08-03T14:24:56;2.30;;;0.93;;
55078;SDS011;55187;49.496;6.010;2022-08-03T14:27:23;3.10;;;1.10;;
55078;SDS011;55187;49.496;6.010;2022-08-03T14:29:49;2.60;;;0.70;;
55078;SDS011;55187;49.496;6.010;2022-08-03T14:32:15;1.05;;;0.70;;
55078;SDS011;55187;49.496;6.010;2022-08-03T14:34:42;0.93;;;0.80;;
55078;SDS011;55187;49.496;6.010;2022-08-03T14:37:08;2.97;;;0.80;;
55078;SDS011;55187;49.496;6.010;2022-08-03T14:39:37;1.20;;;0.90;;
55078;SDS011;55187;49.496;6.010;2022-08-03T14:42:04;6.03;;;0.88;;
55078;SDS011;55187;49.496;6.010;2022-08-03T14:44:31;1.52;;;0.80;;
55078;SDS011;55187;49.496;6.010;2022-08-03T14:46:57;2.42;;;1.17;;
55078;SDS011;55187;49.496;6.010;2022-08-03T14:49:24;2.08;;;0.80;;
55078;SDS011;55187;49.496;6.010;2022-08-03T14:51:54;1.90;;;0.65;;
55078;SDS011;55187;49.496;6.010;2022-08-03T14:54:21;0.88;;;0.65;;
55078;SDS011;55187;49.496;6.010;2022-08-03T14:56:47;7.07;;;1.33;;
55078;SDS011;55187;49.496;6.010;2022-08-03T14:59:14;3.25;;;0.90;;
55078;SDS011;55187;49.496;6.010;2022-08-03T15:01:40;2.85;;;1.00;;
55078;SDS011;55187;49.496;6.010;2022-08-03T15:04:06;1.77;;;1.00;;
55078;SDS011;55187;49.496;6.010;2022-08-03T15:06:33;2.60;;;0.98;;
55078;SDS011;55187;49.496;6.010;2022-08-03T15:08:59;1.48;;;0.90;;
55078;SDS011;55187;49.496;6.010;2022-08-03T15:11:26;3.00;;;1.05;;
55078;SDS011;55187;49.496;6.010;2022-08-03T15:13:52;1.60;;;0.95;;
55078;SDS011;55187;49.496;6.010;2022-08-03T15:16:18;1.08;;;0.80;;
55078;SDS011;55187;49.496;6.010;2022-08-03T15:18:45;1.73;;;1.00;;
55078;SDS011;55187;49.496;6.010;2022-08-03T15:21:11;1.52;;;0.90;;
55078;SDS011;55187;49.496;6.010;2022-08-03T15:23:38;0.95;;;0.77;;
55078;SDS011;55187;49.496;6.010;2022-08-03T15:26:04;2.28;;;0.52;;
55078;SDS011;55187;49.496;6.010;2022-08-03T15:28:30;1.48;;;0.90;;
55078;SDS011;55187;49.496;6.010;2022-08-03T15:30:57;2.33;;;0.90;;
55078;SDS011;55187;49.496;6.010;2022-08-03T15:33:23;0.90;;;0.60;;
55078;SDS011;55187;49.496;6.010;2022-08-03T15:35:50;2.17;;;0.80;;
55078;SDS011;55187;49.496;6.010;2022-08-03T15:38:19;1.65;;;0.75;;
55078;SDS011;55187;49.496;6.010;2022-08-03T15:40:47;1.77;;;1.17;;
55078;SDS011;55187;49.496;6.010;2022-08-03T15:43:14;1.20;;;0.57;;
55078;SDS011;55187;49.496;6.010;2022-08-03T15:45:40;2.00;;;0.82;;